CheckWX is a tool to help pilots better visualize weather data.  It is not intended as a substitute for an official pre-flight weather briefing.

23:14:28 UTC

KGVQ METAR
Genesee County Airport
Batavia, New York, USA
Current

18 mins ago

KGVQ 192256Z AUTO 26008KT 10SM CLR 03/M07 A3034 RMK AO2 SLP306 T00331067
Observed
Mar-19 @ 22:56 UTC
Wind
  • 260° at 8 KTS
Visibility
10 SM
Flight Rules
VFR
Cloud Levels
  • Clear skies
Temperature
C / 37°F
Dewpoint
-7°C / 19°F
Humidity
48%
Altimeter
30.34" Hg
Pressure
1030.6 hPa
Previous

1 hour ago

KGVQ 192156Z AUTO 27010KT 10SM SCT075 04/M07 A3033 RMK AO2 SLP306 T00441072
Observed
Mar-19 @ 21:56 UTC
Wind
  • 270° at 10 KTS
Visibility
10 SM
Flight Rules
VFR
Cloud Levels
  • Scattered at 7,500' AGL
Temperature
C / 39°F
Dewpoint
-7°C / 19°F
Humidity
45%
Altimeter
30.33" Hg
Pressure
1030.6 hPa
Previous

2 hours ago

KGVQ 192056Z AUTO 26011G18KT 10SM FEW050 SCT070 04/M07 A3034 RMK AO2 SLP308 T00441072 56013
Observed
Mar-19 @ 20:56 UTC
Wind
  • 260° at 11 KTS
  • Gusting to 18 KTS
Visibility
10 SM
Flight Rules
VFR
Cloud Levels
  • Few at 5,000' AGL
  • Scattered at 7,000' AGL
Temperature
C / 39°F
Dewpoint
-7°C / 19°F
Humidity
45%
Altimeter
30.34" Hg
Pressure
1030.8 hPa